sensor_id;sensor_type;location;lat;lon;timestamp;P1;durP1;ratioP1;P2;durP2;ratioP2
42886;SDS011;29032;56.028;92.904;2023-11-21T00:00:54;5.27;;;2.63;;
42886;SDS011;29032;56.028;92.904;2023-11-21T00:05:58;5.27;;;2.33;;
42886;SDS011;29032;56.028;92.904;2023-11-21T00:11:00;5.33;;;3.00;;
42886;SDS011;29032;56.028;92.904;2023-11-21T00:16:02;3.63;;;2.20;;
42886;SDS011;29032;56.028;92.904;2023-11-21T00:21:06;6.10;;;2.73;;
42886;SDS011;29032;56.028;92.904;2023-11-21T00:26:08;7.47;;;3.33;;
42886;SDS011;29032;56.028;92.904;2023-11-21T00:31:11;7.50;;;4.13;;
42886;SDS011;29032;56.028;92.904;2023-11-21T00:36:16;6.97;;;2.80;;
42886;SDS011;29032;56.028;92.904;2023-11-21T00:41:18;5.87;;;3.10;;
42886;SDS011;29032;56.028;92.904;2023-11-21T00:46:20;8.70;;;4.27;;
42886;SDS011;29032;56.028;92.904;2023-11-21T00:51:25;6.43;;;3.60;;
42886;SDS011;29032;56.028;92.904;2023-11-21T00:56:27;4.20;;;3.03;;
42886;SDS011;29032;56.028;92.904;2023-11-21T01:01:29;2.80;;;1.87;;
42886;SDS011;29032;56.028;92.904;2023-11-21T01:06:33;7.03;;;3.43;;
42886;SDS011;29032;56.028;92.904;2023-11-21T01:11:35;10.97;;;3.93;;
42886;SDS011;29032;56.028;92.904;2023-11-21T01:16:37;3.87;;;2.20;;
42886;SDS011;29032;56.028;92.904;2023-11-21T01:21:41;7.23;;;3.33;;
42886;SDS011;29032;56.028;92.904;2023-11-21T01:26:43;5.67;;;2.77;;
42886;SDS011;29032;56.028;92.904;2023-11-21T01:31:45;13.13;;;3.60;;
42886;SDS011;29032;56.028;92.904;2023-11-21T01:36:49;11.87;;;4.37;;
42886;SDS011;29032;56.028;92.904;2023-11-21T01:41:51;6.20;;;2.80;;
42886;SDS011;29032;56.028;92.904;2023-11-21T01:46:53;5.20;;;3.00;;
42886;SDS011;29032;56.028;92.904;2023-11-21T01:51:56;6.10;;;2.33;;
42886;SDS011;29032;56.028;92.904;2023-11-21T01:56:59;9.37;;;4.00;;
42886;SDS011;29032;56.028;92.904;2023-11-21T02:02:03;18.20;;;7.57;;
42886;SDS011;29032;56.028;92.904;2023-11-21T02:07:07;15.53;;;6.73;;
42886;SDS011;29032;56.028;92.904;2023-11-21T02:12:10;22.60;;;7.80;;
42886;SDS011;29032;56.028;92.904;2023-11-21T02:17:12;21.73;;;7.77;;
42886;SDS011;29032;56.028;92.904;2023-11-21T02:22:16;15.00;;;6.57;;
42886;SDS011;29032;56.028;92.904;2023-11-21T02:27:21;19.97;;;8.53;;
42886;SDS011;29032;56.028;92.904;2023-11-21T02:32:23;17.03;;;7.33;;
42886;SDS011;29032;56.028;92.904;2023-11-21T02:37:25;19.90;;;7.40;;
42886;SDS011;29032;56.028;92.904;2023-11-21T02:42:29;15.27;;;5.97;;
42886;SDS011;29032;56.028;92.904;2023-11-21T02:47:31;25.73;;;8.93;;
42886;SDS011;29032;56.028;92.904;2023-11-21T02:52:33;10.27;;;5.37;;
42886;SDS011;29032;56.028;92.904;2023-11-21T02:57:37;18.20;;;6.33;;
42886;SDS011;29032;56.028;92.904;2023-11-21T03:02:39;15.63;;;5.47;;
42886;SDS011;29032;56.028;92.904;2023-11-21T03:07:41;10.43;;;4.57;;
42886;SDS011;29032;56.028;92.904;2023-11-21T03:12:45;13.37;;;6.80;;
42886;SDS011;29032;56.028;92.904;2023-11-21T03:17:47;12.50;;;5.00;;
42886;SDS011;29032;56.028;92.904;2023-11-21T03:22:49;8.10;;;3.33;;
42886;SDS011;29032;56.028;92.904;2023-11-21T03:27:53;17.20;;;6.17;;
42886;SDS011;29032;56.028;92.904;2023-11-21T03:32:55;14.73;;;6.43;;
42886;SDS011;29032;56.028;92.904;2023-11-21T03:37:57;13.53;;;5.77;;
42886;SDS011;29032;56.028;92.904;2023-11-21T03:43:01;12.83;;;6.27;;
42886;SDS011;29032;56.028;92.904;2023-11-21T03:48:03;14.27;;;5.77;;
42886;SDS011;29032;56.028;92.904;2023-11-21T03:53:05;14.03;;;5.17;;
42886;SDS011;29032;56.028;92.904;2023-11-21T03:58:09;9.20;;;4.43;;
42886;SDS011;29032;56.028;92.904;2023-11-21T04:03:11;19.37;;;6.77;;
42886;SDS011;29032;56.028;92.904;2023-11-21T04:08:13;15.00;;;5.33;;
42886;SDS011;29032;56.028;92.904;2023-11-21T04:13:16;12.67;;;5.03;;
42886;SDS011;29032;56.028;92.904;2023-11-21T04:18:19;15.50;;;5.23;;
42886;SDS011;29032;56.028;92.904;2023-11-21T04:23:20;15.20;;;5.30;;
42886;SDS011;29032;56.028;92.904;2023-11-21T04:28:24;9.23;;;4.03;;
42886;SDS011;29032;56.028;92.904;2023-11-21T04:33:26;6.83;;;3.40;;
42886;SDS011;29032;56.028;92.904;2023-11-21T04:38:28;8.87;;;3.60;;
42886;SDS011;29032;56.028;92.904;2023-11-21T04:43:32;8.83;;;4.33;;
42886;SDS011;29032;56.028;92.904;2023-11-21T04:48:34;15.57;;;5.93;;
42886;SDS011;29032;56.028;92.904;2023-11-21T04:53:36;11.17;;;4.43;;
42886;SDS011;29032;56.028;92.904;2023-11-21T04:58:39;13.67;;;5.30;;
42886;SDS011;29032;56.028;92.904;2023-11-21T05:03:42;9.13;;;3.27;;
42886;SDS011;29032;56.028;92.904;2023-11-21T05:08:44;8.60;;;4.30;;
42886;SDS011;29032;56.028;92.904;2023-11-21T05:13:47;11.90;;;5.30;;
42886;SDS011;29032;56.028;92.904;2023-11-21T05:18:50;15.13;;;6.20;;
42886;SDS011;29032;56.028;92.904;2023-11-21T05:23:52;20.13;;;6.37;;
42886;SDS011;29032;56.028;92.904;2023-11-21T05:28:56;15.10;;;5.90;;
42886;SDS011;29032;56.028;92.904;2023-11-21T05:33:58;19.20;;;7.13;;
42886;SDS011;29032;56.028;92.904;2023-11-21T05:39:00;15.37;;;5.90;;
42886;SDS011;29032;56.028;92.904;2023-11-21T05:44:03;11.77;;;4.27;;
42886;SDS011;29032;56.028;92.904;2023-11-21T05:49:06;14.43;;;5.03;;
42886;SDS011;29032;56.028;92.904;2023-11-21T05:54:08;13.00;;;6.03;;
42886;SDS011;29032;56.028;92.904;2023-11-21T05:59:11;17.37;;;6.23;;
42886;SDS011;29032;56.028;92.904;2023-11-21T06:04:13;8.23;;;3.90;;
42886;SDS011;29032;56.028;92.904;2023-11-21T06:09:15;10.30;;;3.37;;
42886;SDS011;29032;56.028;92.904;2023-11-21T06:14:19;5.50;;;3.10;;
42886;SDS011;29032;56.028;92.904;2023-11-21T06:19:21;9.77;;;4.77;;
42886;SDS011;29032;56.028;92.904;2023-11-21T06:24:23;7.67;;;3.60;;
42886;SDS011;29032;56.028;92.904;2023-11-21T06:29:27;14.23;;;4.37;;
42886;SDS011;29032;56.028;92.904;2023-11-21T06:34:29;10.43;;;4.60;;
42886;SDS011;29032;56.028;92.904;2023-11-21T06:39:31;9.20;;;3.50;;
42886;SDS011;29032;56.028;92.904;2023-11-21T06:44:34;10.17;;;3.27;;
42886;SDS011;29032;56.028;92.904;2023-11-21T06:49:36;6.30;;;3.40;;
42886;SDS011;29032;56.028;92.904;2023-11-21T06:54:39;10.10;;;3.23;;
42886;SDS011;29032;56.028;92.904;2023-11-21T06:59:42;4.83;;;2.57;;
42886;SDS011;29032;56.028;92.904;2023-11-21T07:04:44;12.77;;;4.70;;
42886;SDS011;29032;56.028;92.904;2023-11-21T07:09:46;8.47;;;3.57;;
42886;SDS011;29032;56.028;92.904;2023-11-21T07:14:50;8.90;;;3.50;;
42886;SDS011;29032;56.028;92.904;2023-11-21T07:19:52;6.13;;;3.33;;
42886;SDS011;29032;56.028;92.904;2023-11-21T07:24:54;7.13;;;3.20;;
42886;SDS011;29032;56.028;92.904;2023-11-21T07:29:58;8.37;;;3.07;;
42886;SDS011;29032;56.028;92.904;2023-11-21T07:35:00;12.03;;;5.33;;
42886;SDS011;29032;56.028;92.904;2023-11-21T07:40:03;5.73;;;3.53;;
42886;SDS011;29032;56.028;92.904;2023-11-21T07:45:07;3.93;;;2.70;;
42886;SDS011;29032;56.028;92.904;2023-11-21T07:50:10;5.27;;;2.53;;
42886;SDS011;29032;56.028;92.904;2023-11-21T07:55:12;9.30;;;3.63;;
42886;SDS011;29032;56.028;92.904;2023-11-21T08:00:16;9.27;;;3.40;;
42886;SDS011;29032;56.028;92.904;2023-11-21T08:05:19;9.53;;;5.30;;
42886;SDS011;29032;56.028;92.904;2023-11-21T08:10:21;16.93;;;4.60;;
42886;SDS011;29032;56.028;92.904;2023-11-21T08:15:27;10.93;;;3.93;;
42886;SDS011;29032;56.028;92.904;2023-11-21T08:20:29;7.77;;;3.67;;
42886;SDS011;29032;56.028;92.904;2023-11-21T08:25:31;15.77;;;6.30;;
42886;SDS011;29032;56.028;92.904;2023-11-21T08:30:34;17.27;;;6.50;;
42886;SDS011;29032;56.028;92.904;2023-11-21T08:35:36;11.53;;;5.60;;
42886;SDS011;29032;56.028;92.904;2023-11-21T08:40:39;8.60;;;4.27;;
42886;SDS011;29032;56.028;92.904;2023-11-21T08:45:43;10.97;;;4.33;;
42886;SDS011;29032;56.028;92.904;2023-11-21T08:50:45;13.13;;;6.10;;
42886;SDS011;29032;56.028;92.904;2023-11-21T08:55:48;13.83;;;6.00;;
42886;SDS011;29032;56.028;92.904;2023-11-21T09:00:51;15.70;;;6.83;;
42886;SDS011;29032;56.028;92.904;2023-11-21T09:05:53;16.77;;;6.03;;
42886;SDS011;29032;56.028;92.904;2023-11-21T09:10:55;15.83;;;5.77;;
42886;SDS011;29032;56.028;92.904;2023-11-21T09:15:59;16.43;;;6.80;;
42886;SDS011;29032;56.028;92.904;2023-11-21T09:21:01;20.70;;;8.30;;
42886;SDS011;29032;56.028;92.904;2023-11-21T09:26:04;25.13;;;11.10;;
42886;SDS011;29032;56.028;92.904;2023-11-21T09:31:07;22.77;;;9.10;;
42886;SDS011;29032;56.028;92.904;2023-11-21T09:36:12;21.67;;;7.17;;
42886;SDS011;29032;56.028;92.904;2023-11-21T09:41:17;24.87;;;7.83;;
42886;SDS011;29032;56.028;92.904;2023-11-21T09:46:24;20.80;;;8.17;;
42886;SDS011;29032;56.028;92.904;2023-11-21T09:51:29;30.58;;;10.65;;
42886;SDS011;29032;56.028;92.904;2023-11-21T09:56:32;24.10;;;7.80;;
42886;SDS011;29032;56.028;92.904;2023-11-21T10:01:36;18.00;;;7.10;;
42886;SDS011;29032;56.028;92.904;2023-11-21T10:06:40;26.27;;;8.63;;
42886;SDS011;29032;56.028;92.904;2023-11-21T10:11:42;29.47;;;11.53;;
42886;SDS011;29032;56.028;92.904;2023-11-21T10:16:47;43.93;;;16.27;;
42886;SDS011;29032;56.028;92.904;2023-11-21T10:21:50;37.93;;;12.97;;
42886;SDS011;29032;56.028;92.904;2023-11-21T10:26:53;34.30;;;12.70;;
42886;SDS011;29032;56.028;92.904;2023-11-21T10:31:56;41.73;;;14.77;;
42886;SDS011;29032;56.028;92.904;2023-11-21T10:36:59;48.93;;;19.80;;
42886;SDS011;29032;56.028;92.904;2023-11-21T10:42:13;54.53;;;19.30;;
42886;SDS011;29032;56.028;92.904;2023-11-21T10:47:16;53.50;;;18.93;;
42886;SDS011;29032;56.028;92.904;2023-11-21T10:52:18;48.40;;;16.03;;
42886;SDS011;29032;56.028;92.904;2023-11-21T10:57:21;33.93;;;12.80;;
42886;SDS011;29032;56.028;92.904;2023-11-21T11:02:26;31.47;;;9.50;;
42886;SDS011;29032;56.028;92.904;2023-11-21T11:07:28;28.77;;;10.63;;
42886;SDS011;29032;56.028;92.904;2023-11-21T11:12:31;37.20;;;14.23;;
42886;SDS011;29032;56.028;92.904;2023-11-21T11:17:35;32.30;;;12.37;;
42886;SDS011;29032;56.028;92.904;2023-11-21T11:22:40;34.90;;;12.90;;
42886;SDS011;29032;56.028;92.904;2023-11-21T11:27:52;39.50;;;16.50;;
42886;SDS011;29032;56.028;92.904;2023-11-21T11:33:03;52.10;;;20.13;;
42886;SDS011;29032;56.028;92.904;2023-11-21T11:38:11;66.03;;;23.20;;
42886;SDS011;29032;56.028;92.904;2023-11-21T11:43:13;79.03;;;24.13;;
42886;SDS011;29032;56.028;92.904;2023-11-21T11:48:27;80.13;;;29.03;;
42886;SDS011;29032;56.028;92.904;2023-11-21T11:53:33;86.03;;;27.13;;
42886;SDS011;29032;56.028;92.904;2023-11-21T11:58:40;85.47;;;29.10;;
42886;SDS011;29032;56.028;92.904;2023-11-21T12:03:44;86.57;;;29.60;;
42886;SDS011;29032;56.028;92.904;2023-11-21T12:09:10;67.60;;;22.93;;
42886;SDS011;29032;56.028;92.904;2023-11-21T12:14:19;61.13;;;24.30;;
42886;SDS011;29032;56.028;92.904;2023-11-21T12:19:22;52.33;;;20.20;;
42886;SDS011;29032;56.028;92.904;2023-11-21T12:24:25;67.30;;;23.13;;
42886;SDS011;29032;56.028;92.904;2023-11-21T12:29:27;57.17;;;21.77;;
42886;SDS011;29032;56.028;92.904;2023-11-21T12:34:31;57.00;;;20.03;;
42886;SDS011;29032;56.028;92.904;2023-11-21T12:39:33;56.93;;;22.43;;
42886;SDS011;29032;56.028;92.904;2023-11-21T12:44:35;56.77;;;21.63;;
42886;SDS011;29032;56.028;92.904;2023-11-21T12:49:38;65.47;;;24.63;;
42886;SDS011;29032;56.028;92.904;2023-11-21T12:54:40;57.27;;;25.80;;
42886;SDS011;29032;56.028;92.904;2023-11-21T12:59:44;62.87;;;22.27;;
42886;SDS011;29032;56.028;92.904;2023-11-21T13:04:53;69.40;;;23.07;;
42886;SDS011;29032;56.028;92.904;2023-11-21T13:09:55;46.63;;;20.27;;
42886;SDS011;29032;56.028;92.904;2023-11-21T13:14:57;72.33;;;24.30;;
42886;SDS011;29032;56.028;92.904;2023-11-21T13:20:07;68.10;;;25.37;;
42886;SDS011;29032;56.028;92.904;2023-11-21T13:25:10;73.97;;;27.63;;
42886;SDS011;29032;56.028;92.904;2023-11-21T13:30:13;70.50;;;25.97;;
42886;SDS011;29032;56.028;92.904;2023-11-21T13:35:17;66.90;;;24.53;;
42886;SDS011;29032;56.028;92.904;2023-11-21T13:40:20;82.13;;;29.13;;
42886;SDS011;29032;56.028;92.904;2023-11-21T13:45:22;94.00;;;33.67;;
42886;SDS011;29032;56.028;92.904;2023-11-21T13:50:26;92.33;;;32.67;;
42886;SDS011;29032;56.028;92.904;2023-11-21T13:55:28;84.60;;;30.27;;
42886;SDS011;29032;56.028;92.904;2023-11-21T14:00:30;82.87;;;30.10;;
42886;SDS011;29032;56.028;92.904;2023-11-21T14:05:34;83.63;;;30.03;;
42886;SDS011;29032;56.028;92.904;2023-11-21T14:10:36;60.43;;;23.90;;
42886;SDS011;29032;56.028;92.904;2023-11-21T14:15:38;54.90;;;19.40;;
42886;SDS011;29032;56.028;92.904;2023-11-21T14:20:42;49.27;;;18.27;;
42886;SDS011;29032;56.028;92.904;2023-11-21T14:25:45;61.47;;;19.13;;
42886;SDS011;29032;56.028;92.904;2023-11-21T14:30:47;41.83;;;15.90;;
42886;SDS011;29032;56.028;92.904;2023-11-21T14:35:50;46.30;;;15.07;;
42886;SDS011;29032;56.028;92.904;2023-11-21T14:40:52;40.00;;;13.00;;
42886;SDS011;29032;56.028;92.904;2023-11-21T14:45:54;36.90;;;12.90;;
42886;SDS011;29032;56.028;92.904;2023-11-21T14:50:58;28.77;;;11.67;;
42886;SDS011;29032;56.028;92.904;2023-11-21T14:56:00;34.40;;;13.97;;
42886;SDS011;29032;56.028;92.904;2023-11-21T15:01:02;42.33;;;16.00;;
42886;SDS011;29032;56.028;92.904;2023-11-21T15:06:07;46.77;;;18.00;;
42886;SDS011;29032;56.028;92.904;2023-11-21T15:11:09;47.73;;;18.03;;
42886;SDS011;29032;56.028;92.904;2023-11-21T15:16:12;48.23;;;19.57;;
42886;SDS011;29032;56.028;92.904;2023-11-21T15:21:16;53.63;;;20.03;;
42886;SDS011;29032;56.028;92.904;2023-11-21T15:26:18;36.27;;;15.87;;
42886;SDS011;29032;56.028;92.904;2023-11-21T15:31:20;43.87;;;14.97;;
42886;SDS011;29032;56.028;92.904;2023-11-21T15:36:23;43.73;;;16.00;;
42886;SDS011;29032;56.028;92.904;2023-11-21T15:41:25;43.53;;;16.80;;
42886;SDS011;29032;56.028;92.904;2023-11-21T15:46:28;45.10;;;16.80;;
42886;SDS011;29032;56.028;92.904;2023-11-21T15:51:31;35.03;;;13.33;;
42886;SDS011;29032;56.028;92.904;2023-11-21T15:56:33;41.80;;;14.70;;
42886;SDS011;29032;56.028;92.904;2023-11-21T16:01:35;42.27;;;14.37;;
42886;SDS011;29032;56.028;92.904;2023-11-21T16:06:39;33.30;;;13.50;;
42886;SDS011;29032;56.028;92.904;2023-11-21T16:11:41;34.13;;;11.70;;
42886;SDS011;29032;56.028;92.904;2023-11-21T16:16:43;38.03;;;13.97;;
42886;SDS011;29032;56.028;92.904;2023-11-21T16:21:47;30.83;;;12.77;;
42886;SDS011;29032;56.028;92.904;2023-11-21T16:26:49;30.07;;;11.57;;
42886;SDS011;29032;56.028;92.904;2023-11-21T16:31:51;28.77;;;11.17;;
42886;SDS011;29032;56.028;92.904;2023-11-21T16:36:55;23.87;;;10.63;;
42886;SDS011;29032;56.028;92.904;2023-11-21T16:41:57;30.00;;;9.73;;
42886;SDS011;29032;56.028;92.904;2023-11-21T16:46:59;26.63;;;9.53;;
42886;SDS011;29032;56.028;92.904;2023-11-21T16:52:03;26.23;;;10.27;;
42886;SDS011;29032;56.028;92.904;2023-11-21T16:57:06;25.43;;;10.90;;
42886;SDS011;29032;56.028;92.904;2023-11-21T17:02:08;22.13;;;9.03;;
42886;SDS011;29032;56.028;92.904;2023-11-21T17:07:13;25.67;;;10.43;;
42886;SDS011;29032;56.028;92.904;2023-11-21T17:12:16;27.03;;;8.70;;
42886;SDS011;29032;56.028;92.904;2023-11-21T17:17:18;27.73;;;7.87;;
42886;SDS011;29032;56.028;92.904;2023-11-21T17:22:21;16.40;;;6.10;;
42886;SDS011;29032;56.028;92.904;2023-11-21T17:27:23;16.67;;;6.13;;
42886;SDS011;29032;56.028;92.904;2023-11-21T17:32:25;18.40;;;6.43;;
42886;SDS011;29032;56.028;92.904;2023-11-21T17:37:29;12.17;;;6.10;;
42886;SDS011;29032;56.028;92.904;2023-11-21T17:42:31;11.37;;;5.67;;
42886;SDS011;29032;56.028;92.904;2023-11-21T17:47:33;11.37;;;4.87;;
42886;SDS011;29032;56.028;92.904;2023-11-21T17:52:37;10.60;;;4.53;;
42886;SDS011;29032;56.028;92.904;2023-11-21T17:57:39;13.93;;;4.43;;
42886;SDS011;29032;56.028;92.904;2023-11-21T18:02:41;9.17;;;4.30;;
42886;SDS011;29032;56.028;92.904;2023-11-21T18:07:44;12.87;;;5.27;;
42886;SDS011;29032;56.028;92.904;2023-11-21T18:12:47;9.57;;;4.40;;
42886;SDS011;29032;56.028;92.904;2023-11-21T18:17:49;8.90;;;4.33;;
42886;SDS011;29032;56.028;92.904;2023-11-21T18:22:52;11.10;;;4.73;;
42886;SDS011;29032;56.028;92.904;2023-11-21T18:27:54;10.73;;;4.37;;
42886;SDS011;29032;56.028;92.904;2023-11-21T18:32:56;10.43;;;4.80;;
42886;SDS011;29032;56.028;92.904;2023-11-21T18:38:00;9.30;;;4.17;;
42886;SDS011;29032;56.028;92.904;2023-11-21T18:43:02;9.50;;;4.40;;
42886;SDS011;29032;56.028;92.904;2023-11-21T18:48:04;7.17;;;3.77;;
42886;SDS011;29032;56.028;92.904;2023-11-21T18:53:08;9.27;;;3.30;;
42886;SDS011;29032;56.028;92.904;2023-11-21T18:58:10;11.67;;;3.80;;
42886;SDS011;29032;56.028;92.904;2023-11-21T19:03:12;12.67;;;3.77;;
42886;SDS011;29032;56.028;92.904;2023-11-21T19:08:15;10.50;;;4.00;;
42886;SDS011;29032;56.028;92.904;2023-11-21T19:13:17;9.27;;;3.47;;
42886;SDS011;29032;56.028;92.904;2023-11-21T19:18:19;8.20;;;3.87;;
42886;SDS011;29032;56.028;92.904;2023-11-21T19:23:23;9.53;;;3.20;;
42886;SDS011;29032;56.028;92.904;2023-11-21T19:28:25;10.23;;;3.83;;
42886;SDS011;29032;56.028;92.904;2023-11-21T19:33:27;12.17;;;4.43;;
42886;SDS011;29032;56.028;92.904;2023-11-21T19:38:31;9.10;;;3.83;;
42886;SDS011;29032;56.028;92.904;2023-11-21T19:43:35;8.77;;;3.60;;
42886;SDS011;29032;56.028;92.904;2023-11-21T19:48:37;9.47;;;4.40;;
42886;SDS011;29032;56.028;92.904;2023-11-21T19:53:40;8.90;;;4.10;;
42886;SDS011;29032;56.028;92.904;2023-11-21T19:58:43;9.23;;;4.50;;
42886;SDS011;29032;56.028;92.904;2023-11-21T20:03:45;12.33;;;5.47;;
42886;SDS011;29032;56.028;92.904;2023-11-21T20:08:48;11.83;;;5.60;;
42886;SDS011;29032;56.028;92.904;2023-11-21T20:13:50;8.87;;;4.73;;
42886;SDS011;29032;56.028;92.904;2023-11-21T20:18:53;10.50;;;4.97;;
42886;SDS011;29032;56.028;92.904;2023-11-21T20:23:56;11.03;;;4.73;;
42886;SDS011;29032;56.028;92.904;2023-11-21T20:28:58;8.13;;;3.73;;
42886;SDS011;29032;56.028;92.904;2023-11-21T20:34:00;11.43;;;4.60;;
42886;SDS011;29032;56.028;92.904;2023-11-21T20:39:04;7.30;;;4.07;;
42886;SDS011;29032;56.028;92.904;2023-11-21T20:44:06;10.27;;;4.57;;
42886;SDS011;29032;56.028;92.904;2023-11-21T20:49:08;7.90;;;4.30;;
42886;SDS011;29032;56.028;92.904;2023-11-21T20:54:12;11.53;;;3.87;;
42886;SDS011;29032;56.028;92.904;2023-11-21T20:59:14;7.63;;;4.37;;
42886;SDS011;29032;56.028;92.904;2023-11-21T21:04:16;7.70;;;4.13;;
42886;SDS011;29032;56.028;92.904;2023-11-21T21:09:19;6.47;;;4.03;;
42886;SDS011;29032;56.028;92.904;2023-11-21T21:14:21;9.63;;;3.77;;
42886;SDS011;29032;56.028;92.904;2023-11-21T21:19:24;7.77;;;4.03;;
42886;SDS011;29032;56.028;92.904;2023-11-21T21:24:27;10.37;;;4.23;;
42886;SDS011;29032;56.028;92.904;2023-11-21T21:29:29;7.27;;;3.93;;
42886;SDS011;29032;56.028;92.904;2023-11-21T21:34:32;6.20;;;3.63;;
42886;SDS011;29032;56.028;92.904;2023-11-21T21:39:35;4.93;;;3.53;;
42886;SDS011;29032;56.028;92.904;2023-11-21T21:44:37;10.80;;;4.43;;
42886;SDS011;29032;56.028;92.904;2023-11-21T21:49:39;11.80;;;4.80;;
42886;SDS011;29032;56.028;92.904;2023-11-21T21:54:43;9.97;;;4.40;;
42886;SDS011;29032;56.028;92.904;2023-11-21T21:59:45;5.17;;;3.60;;
42886;SDS011;29032;56.028;92.904;2023-11-21T22:04:47;5.97;;;4.20;;
42886;SDS011;29032;56.028;92.904;2023-11-21T22:09:50;9.20;;;3.87;;
42886;SDS011;29032;56.028;92.904;2023-11-21T22:14:53;6.30;;;3.50;;
42886;SDS011;29032;56.028;92.904;2023-11-21T22:19:55;6.70;;;3.30;;
42886;SDS011;29032;56.028;92.904;2023-11-21T22:24:58;11.70;;;3.73;;
42886;SDS011;29032;56.028;92.904;2023-11-21T22:30:00;6.33;;;3.63;;
42886;SDS011;29032;56.028;92.904;2023-11-21T22:35:03;11.53;;;4.77;;
42886;SDS011;29032;56.028;92.904;2023-11-21T22:40:08;13.43;;;4.70;;
42886;SDS011;29032;56.028;92.904;2023-11-21T22:45:10;14.40;;;6.50;;
42886;SDS011;29032;56.028;92.904;2023-11-21T22:50:12;18.77;;;6.30;;
42886;SDS011;29032;56.028;92.904;2023-11-21T22:55:16;16.93;;;6.37;;
42886;SDS011;29032;56.028;92.904;2023-11-21T23:00:18;14.60;;;5.80;;
42886;SDS011;29032;56.028;92.904;2023-11-21T23:05:20;15.23;;;6.63;;
42886;SDS011;29032;56.028;92.904;2023-11-21T23:10:24;11.57;;;4.53;;
42886;SDS011;29032;56.028;92.904;2023-11-21T23:15:26;11.97;;;5.77;;
42886;SDS011;29032;56.028;92.904;2023-11-21T23:20:28;13.03;;;5.57;;
42886;SDS011;29032;56.028;92.904;2023-11-21T23:25:32;16.03;;;5.40;;
42886;SDS011;29032;56.028;92.904;2023-11-21T23:30:34;13.33;;;4.80;;
42886;SDS011;29032;56.028;92.904;2023-11-21T23:35:36;6.97;;;4.20;;
42886;SDS011;29032;56.028;92.904;2023-11-21T23:40:39;9.10;;;4.67;;
42886;SDS011;29032;56.028;92.904;2023-11-21T23:45:41;9.63;;;4.43;;
42886;SDS011;29032;56.028;92.904;2023-11-21T23:50:43;13.53;;;5.33;;
42886;SDS011;29032;56.028;92.904;2023-11-21T23:55:47;17.70;;;7.87;;
